createdAt,value
2019-03-09T00:01:42.994Z,6.55
2019-03-09T00:04:25.161Z,6.62
2019-03-09T00:06:58.913Z,6.59
2019-03-09T00:09:32.322Z,6.58
2019-03-09T00:12:06.042Z,6.64
2019-03-09T00:14:39.451Z,6.62
2019-03-09T00:17:11.654Z,6.61
2019-03-09T00:19:45.104Z,6.57
2019-03-09T00:22:19.417Z,6.59
2019-03-09T00:25:09.032Z,6.63
2019-03-09T00:27:49.014Z,6.57
2019-03-09T00:30:27.888Z,6.57
2019-03-09T00:33:02.797Z,6.59
2019-03-09T00:35:36.131Z,6.62
2019-03-09T00:38:19.719Z,6.70
2019-03-09T00:40:53.324Z,6.66
2019-03-09T00:43:27.847Z,6.66
2019-03-09T00:46:01.259Z,6.65
2019-03-09T00:48:34.541Z,6.60
2019-03-09T00:51:19.412Z,6.58
2019-03-09T00:53:53.182Z,6.47
2019-03-09T00:56:27.809Z,6.41
2019-03-09T00:59:01.223Z,6.35
2019-03-09T01:01:35.353Z,6.28
2019-03-09T01:04:08.516Z,6.20
2019-03-09T01:06:43.071Z,6.14
2019-03-09T01:09:25.986Z,6.15
2019-03-09T01:12:12.528Z,6.07
2019-03-09T01:14:46.572Z,6.00
2019-03-09T01:17:21.073Z,5.94
2019-03-09T01:19:54.530Z,5.96
2019-03-09T01:22:28.706Z,5.89
2019-03-09T01:25:02.612Z,5.90
2019-03-09T01:27:37.024Z,5.89
2019-03-09T01:30:13.310Z,5.84
2019-03-09T01:32:58.181Z,5.89
2019-03-09T01:35:43.233Z,5.88
2019-03-09T01:38:29.761Z,5.86
2019-03-09T01:41:03.862Z,5.75
2019-03-09T01:43:56.103Z,5.80
2019-03-09T01:46:30.345Z,5.74
2019-03-09T01:49:04.053Z,5.72
2019-03-09T01:51:56.021Z,5.76
2019-03-09T01:54:41.694Z,5.73
2019-03-09T01:57:33.444Z,5.78
2019-03-09T02:00:07.809Z,5.70
2019-03-09T02:02:42.582Z,5.72
2019-03-09T02:05:31.368Z,5.75
2019-03-09T02:08:04.882Z,5.69
2019-03-09T02:10:37.985Z,5.73
2019-03-09T02:13:11.258Z,5.72
2019-03-09T02:15:45.831Z,5.71
2019-03-09T02:18:20.112Z,5.70
2019-03-09T02:20:54.749Z,5.68
2019-03-09T02:23:28.855Z,5.70
2019-03-09T02:26:02.634Z,5.71
2019-03-09T02:28:45.593Z,5.55
2019-03-09T02:31:28.407Z,5.75
2019-03-09T02:34:16.954Z,5.75
2019-03-09T02:36:51.216Z,5.73
2019-03-09T02:39:33.825Z,5.72
2019-03-09T02:42:07.996Z,5.48
2019-03-09T02:44:50.554Z,5.76
2019-03-09T02:47:34.012Z,5.78
2019-03-09T02:50:16.532Z,5.77
2019-03-09T02:52:50.468Z,5.75
2019-03-09T02:55:33.628Z,5.79
2019-03-09T02:58:17.169Z,5.82
2019-03-09T03:00:59.122Z,5.75
2019-03-09T03:03:32.857Z,5.76
2019-03-09T03:06:08.050Z,5.77
2019-03-09T03:08:51.309Z,5.83
2019-03-09T03:11:34.139Z,5.82
2019-03-09T03:14:07.922Z,5.78
2019-03-09T03:17:00.109Z,5.86
2019-03-09T03:19:33.958Z,5.82
2019-03-09T03:22:08.493Z,5.83
2019-03-09T03:24:51.511Z,5.91
2019-03-09T03:27:25.642Z,5.84
2019-03-09T03:29:59.446Z,5.85
2019-03-09T03:32:35.613Z,4.98
2019-03-09T03:35:09.585Z,5.87
2019-03-09T03:37:43.840Z,5.85
2019-03-09T03:40:26.683Z,5.90
2019-03-09T03:43:09.518Z,5.91
2019-03-09T03:45:55.801Z,5.88
2019-03-09T03:48:29.495Z,5.84
2019-03-09T03:51:03.638Z,5.84
2019-03-09T03:53:50.782Z,5.88
2019-03-09T03:56:26.163Z,5.85
2019-03-09T03:59:01.086Z,5.83
2019-03-09T04:01:37.326Z,5.87
2019-03-09T04:04:09.587Z,5.87
2019-03-09T04:06:52.285Z,5.94
2019-03-09T04:09:39.129Z,5.95
2019-03-09T04:12:11.916Z,5.93
2019-03-09T04:14:45.669Z,5.96
2019-03-09T04:17:19.607Z,5.96
2019-03-09T04:20:04.713Z,6.01
2019-03-09T04:22:47.803Z,6.02
2019-03-09T04:25:30.948Z,6.02
2019-03-09T04:28:06.125Z,6.00
2019-03-09T04:30:40.511Z,6.01
2019-03-09T04:33:15.239Z,6.03
2019-03-09T04:35:49.126Z,6.04
2019-03-09T04:38:22.128Z,6.04
2019-03-09T04:40:56.396Z,6.07
2019-03-09T04:43:31.009Z,6.09
2019-03-09T04:46:05.028Z,5.99
2019-03-09T04:48:37.493Z,6.12
2019-03-09T04:51:12.196Z,6.15
2019-03-09T04:53:46.645Z,6.18
2019-03-09T04:56:20.717Z,6.17
2019-03-09T04:58:54.710Z,6.19
2019-03-09T05:01:27.927Z,5.99
2019-03-09T05:04:51.423Z,6.23
2019-03-09T05:07:41.545Z,6.22
2019-03-09T05:10:31.255Z,6.27
2019-03-09T05:13:26.043Z,6.26
2019-03-09T05:16:00.219Z,6.33
2019-03-09T05:18:44.851Z,6.40
2019-03-09T05:21:19.026Z,6.38
2019-03-09T05:24:04.334Z,6.45
2019-03-09T05:26:37.698Z,6.43
2019-03-09T05:29:11.947Z,6.40
2019-03-09T05:31:55.361Z,6.45
2019-03-09T05:34:29.562Z,6.45
2019-03-09T05:37:03.963Z,6.46
2019-03-09T05:39:38.655Z,6.44
2019-03-09T05:42:22.782Z,6.43
2019-03-09T05:44:57.149Z,6.35
2019-03-09T05:47:39.728Z,6.38
2019-03-09T05:50:23.192Z,6.39
2019-03-09T05:53:17.248Z,6.37
2019-03-09T05:56:07.790Z,6.48
2019-03-09T05:58:42.768Z,6.48
2019-03-09T06:01:14.967Z,6.48
2019-03-09T06:03:57.508Z,6.54
2019-03-09T06:06:32.614Z,6.50
2019-03-09T06:09:15.812Z,6.58
2019-03-09T06:11:58.102Z,6.58
2019-03-09T06:14:31.954Z,6.53
2019-03-09T06:17:15.802Z,6.57
2019-03-09T06:19:50.711Z,6.53
2019-03-09T06:22:24.528Z,6.51
2019-03-09T06:24:57.155Z,6.54
2019-03-09T06:27:40.337Z,6.61
2019-03-09T06:30:13.595Z,6.57
2019-03-09T06:33:39.535Z,6.61
2019-03-09T06:36:46.201Z,6.50
2019-03-09T06:39:28.689Z,6.50
2019-03-09T06:42:43.646Z,6.69
2019-03-09T06:45:25.696Z,6.68
2019-03-09T06:47:59.651Z,6.63
2019-03-09T06:50:33.842Z,6.67
2019-03-09T06:53:08.301Z,6.70
2019-03-09T06:55:42.127Z,6.70
2019-03-09T06:58:16.861Z,6.72
2019-03-09T07:00:50.787Z,6.74
2019-03-09T07:03:24.015Z,6.74
2019-03-09T07:05:58.244Z,6.84
2019-03-09T07:08:41.488Z,6.93
2019-03-09T07:11:23.749Z,6.96
2019-03-09T07:13:59.590Z,6.90
2019-03-09T07:16:45.014Z,6.89
2019-03-09T07:19:19.477Z,6.86
2019-03-09T07:22:02.645Z,6.89
2019-03-09T07:24:36.434Z,6.86
2019-03-09T07:27:11.134Z,6.87
2019-03-09T07:30:00.427Z,7.01
2019-03-09T07:32:34.720Z,6.97
2019-03-09T07:35:09.075Z,7.01
2019-03-09T07:37:43.613Z,6.91
2019-03-09T07:40:17.910Z,6.95
2019-03-09T07:42:52.189Z,7.01
2019-03-09T07:45:26.553Z,7.10
2019-03-09T07:48:00.928Z,7.12
2019-03-09T07:50:36.544Z,7.21
2019-03-09T07:53:19.660Z,7.32
2019-03-09T07:55:52.587Z,7.34
2019-03-09T07:58:26.535Z,7.35
2019-03-09T08:01:03.431Z,7.39
2019-03-09T08:03:46.936Z,7.46
2019-03-09T08:06:18.823Z,7.51
2019-03-09T08:08:52.378Z,7.46
2019-03-09T08:11:25.599Z,7.50
2019-03-09T08:14:08.843Z,7.59
2019-03-09T08:16:42.566Z,7.58
2019-03-09T08:19:16.409Z,7.61
2019-03-09T08:21:50.350Z,7.64
2019-03-09T08:24:59.470Z,7.70
2019-03-09T08:27:33.429Z,7.69
2019-03-09T08:30:24.275Z,7.75
2019-03-09T08:33:06.468Z,7.77
2019-03-09T08:35:39.743Z,7.72
2019-03-09T08:38:13.253Z,7.75
2019-03-09T08:40:47.716Z,7.82
2019-03-09T08:43:31.708Z,7.89
2019-03-09T08:46:12.528Z,7.80
2019-03-09T08:48:54.978Z,7.89
2019-03-09T08:51:28.574Z,7.83
2019-03-09T08:54:02.067Z,7.85
2019-03-09T08:56:36.835Z,7.88
2019-03-09T08:59:10.331Z,7.82
2019-03-09T09:01:43.852Z,7.76
2019-03-09T09:04:17.016Z,7.75
2019-03-09T09:07:07.691Z,7.83
2019-03-09T09:09:41.533Z,7.83
2019-03-09T09:12:24.222Z,7.89
2019-03-09T09:14:57.665Z,7.85
2019-03-09T09:17:31.469Z,7.91
2019-03-09T09:20:05.318Z,7.91
2019-03-09T09:22:49.252Z,7.92
2019-03-09T09:25:32.667Z,7.93
2019-03-09T09:28:07.065Z,7.93
2019-03-09T09:30:41.111Z,7.90
2019-03-09T09:33:23.528Z,8.01
2019-03-09T09:35:56.967Z,8.05
2019-03-09T09:38:31.311Z,8.22
2019-03-09T09:41:04.943Z,8.24
2019-03-09T09:43:38.767Z,8.37
2019-03-09T09:46:12.624Z,8.33
2019-03-09T09:48:47.145Z,8.37
2019-03-09T09:51:30.434Z,8.42
2019-03-09T09:54:04.306Z,8.37
2019-03-09T09:56:38.879Z,8.37
2019-03-09T09:59:14.667Z,8.39
2019-03-09T10:01:57.988Z,8.46
2019-03-09T10:04:40.223Z,8.51
2019-03-09T10:07:15.067Z,8.40
2019-03-09T10:09:50.596Z,8.47
2019-03-09T10:12:24.047Z,8.48
2019-03-09T10:14:57.588Z,8.50
2019-03-09T10:17:31.766Z,8.49
2019-03-09T10:20:07.052Z,8.59
2019-03-09T10:22:49.352Z,8.66
2019-03-09T10:25:23.491Z,8.53
2019-03-09T10:28:06.457Z,8.53
2019-03-09T10:30:39.705Z,8.60
2019-03-09T10:33:15.253Z,8.64
2019-03-09T10:35:50.729Z,8.63
2019-03-09T10:38:25.030Z,8.69
2019-03-09T10:40:59.582Z,8.74
2019-03-09T10:43:33.420Z,8.74
2019-03-09T10:46:16.238Z,8.90
2019-03-09T10:48:59.850Z,8.98
2019-03-09T10:51:33.539Z,8.96
2019-03-09T10:54:06.733Z,9.01
2019-03-09T10:56:40.719Z,9.00
2019-03-09T10:59:13.901Z,9.02
2019-03-09T11:01:47.538Z,9.12
2019-03-09T11:04:27.471Z,9.20
2019-03-09T11:07:08.342Z,9.17
2019-03-09T11:09:54.640Z,9.17
2019-03-09T11:12:28.832Z,9.17
2019-03-09T11:15:02.986Z,9.15
2019-03-09T11:17:45.771Z,9.25
2019-03-09T11:20:30.422Z,9.24
2019-03-09T11:23:15.629Z,9.38
2019-03-09T11:26:01.542Z,9.51
2019-03-09T11:28:35.994Z,9.62
2019-03-09T11:31:09.834Z,9.79
2019-03-09T11:33:56.253Z,9.88
2019-03-09T11:36:30.303Z,9.88
2019-03-09T11:39:05.874Z,10.21
2019-03-09T11:41:49.055Z,10.34
2019-03-09T11:44:34.405Z,10.39
2019-03-09T11:47:17.716Z,10.23
2019-03-09T11:49:51.437Z,10.20
2019-03-09T11:52:25.698Z,9.99
2019-03-09T11:54:59.353Z,10.14
2019-03-09T11:57:48.756Z,10.19
2019-03-09T12:00:39.550Z,10.30
2019-03-09T12:03:29.587Z,10.16
2019-03-09T12:06:20.191Z,10.08
2019-03-09T12:08:54.575Z,10.02
2019-03-09T12:11:30.045Z,9.97
2019-03-09T12:14:21.550Z,10.09
2019-03-09T12:16:55.688Z,10.19
2019-03-09T12:19:40.816Z,10.20
2019-03-09T12:22:23.162Z,10.25
2019-03-09T12:24:58.512Z,10.18
2019-03-09T12:27:42.086Z,10.24
2019-03-09T12:30:16.788Z,10.09
2019-03-09T12:33:00.184Z,10.09
2019-03-09T12:35:33.819Z,9.96
2019-03-09T12:38:07.571Z,9.91
2019-03-09T12:40:41.536Z,9.85
2019-03-09T12:43:16.487Z,9.90
2019-03-09T12:45:52.443Z,9.96
2019-03-09T12:48:37.189Z,10.03
2019-03-09T12:51:11.444Z,9.95
2019-03-09T12:53:45.939Z,9.90
2019-03-09T12:56:20.315Z,9.93
2019-03-09T12:58:54.397Z,9.90
2019-03-09T13:01:43.491Z,9.91
2019-03-09T13:05:09.466Z,9.99
2019-03-09T13:07:49.527Z,10.04
2019-03-09T13:16:04.469Z,10.23
2019-03-09T13:18:46.415Z,10.18
2019-03-09T13:21:28.754Z,10.13
2019-03-09T13:27:32.427Z,10.02
2019-03-09T13:30:06.740Z,9.93
2019-03-09T13:32:41.289Z,9.91
2019-03-09T13:35:14.622Z,9.86
2019-03-09T13:38:16.432Z,9.84
2019-03-09T13:41:11.619Z,9.78
2019-03-09T13:43:45.843Z,9.78
2019-03-09T13:46:19.708Z,9.76
2019-03-09T13:48:55.165Z,9.78
2019-03-09T13:51:47.910Z,9.81
2019-03-09T13:54:22.316Z,9.84
2019-03-09T13:56:59.364Z,9.93
2019-03-09T13:59:34.774Z,9.88
2019-03-09T14:02:11.205Z,9.90
2019-03-09T14:04:45.091Z,9.87
2019-03-09T14:07:19.237Z,9.87
2019-03-09T14:10:07.526Z,9.90
2019-03-09T14:12:57.834Z,9.88
2019-03-09T14:15:47.860Z,9.89
2019-03-09T14:18:37.115Z,9.90
2019-03-09T14:21:32.511Z,9.90
2019-03-09T14:24:31.494Z,9.85
2019-03-09T14:27:06.913Z,9.87
2019-03-09T14:29:52.653Z,9.90
2019-03-09T14:32:26.632Z,9.79
2019-03-09T14:35:00.673Z,9.66
2019-03-09T14:37:34.707Z,9.47
2019-03-09T14:40:19.957Z,9.13
2019-03-09T14:43:11.614Z,8.82
2019-03-09T14:46:03.412Z,8.71
2019-03-09T14:48:50.036Z,8.69
2019-03-09T14:51:27.692Z,8.60
2019-03-09T14:54:01.380Z,8.58
2019-03-09T14:56:35.646Z,8.56
2019-03-09T14:59:09.031Z,8.55
2019-03-09T15:01:43.243Z,8.55
2019-03-09T15:04:36.214Z,8.53
2019-03-09T15:07:10.351Z,8.38
2019-03-09T15:09:46.292Z,8.34
2019-03-09T15:12:20.735Z,8.33
2019-03-09T15:15:06.581Z,8.33
2019-03-09T15:17:41.325Z,8.24
2019-03-09T15:20:27.397Z,8.21
2019-03-09T15:23:01.500Z,8.15
2019-03-09T15:25:36.561Z,8.07
2019-03-09T15:28:10.631Z,7.99
2019-03-09T15:30:47.194Z,7.87
2019-03-09T15:33:38.769Z,7.74
2019-03-09T15:36:30.021Z,7.66
2019-03-09T15:39:14.458Z,7.39
2019-03-09T15:41:49.859Z,7.24
2019-03-09T15:44:35.041Z,7.14
2019-03-09T15:47:29.259Z,6.99
2019-03-09T15:50:14.995Z,6.86
2019-03-09T15:53:00.496Z,6.82
2019-03-09T15:55:36.133Z,6.77
2019-03-09T15:58:10.420Z,6.67
2019-03-09T16:00:44.077Z,6.67
2019-03-09T16:03:27.722Z,6.71
2019-03-09T16:06:01.609Z,6.60
2019-03-09T16:08:35.095Z,6.60
2019-03-09T16:11:08.635Z,6.56
2019-03-09T16:13:42.043Z,6.50
2019-03-09T16:16:15.502Z,6.49
2019-03-09T16:18:48.953Z,6.53
2019-03-09T16:21:22.491Z,6.56
2019-03-09T16:24:05.354Z,6.65
2019-03-09T16:26:47.547Z,6.72
2019-03-09T16:29:20.984Z,6.71
2019-03-09T16:31:54.099Z,6.71
2019-03-09T16:34:27.600Z,6.63
2019-03-09T16:37:01.851Z,6.57
2019-03-09T16:39:35.655Z,6.55
2019-03-09T16:42:08.783Z,6.54
2019-03-09T16:44:42.731Z,6.51
2019-03-09T16:47:15.883Z,6.51
2019-03-09T16:49:49.000Z,6.54
2019-03-09T16:52:31.411Z,6.60
2019-03-09T16:55:14.666Z,6.63
2019-03-09T16:57:48.552Z,6.57
2019-03-09T17:00:23.039Z,6.62
2019-03-09T17:03:05.713Z,6.72
2019-03-09T17:05:50.344Z,6.71
2019-03-09T17:08:24.372Z,6.68
2019-03-09T17:11:01.636Z,6.70
2019-03-09T17:13:49.475Z,6.73
2019-03-09T17:16:23.697Z,6.64
2019-03-09T17:19:06.324Z,6.60
2019-03-09T17:21:40.635Z,6.41
2019-03-09T17:24:16.701Z,6.36
2019-03-09T17:26:50.196Z,6.33
2019-03-09T17:29:23.578Z,6.26
2019-03-09T17:31:59.127Z,6.28
2019-03-09T17:34:34.324Z,6.27
2019-03-09T17:37:09.389Z,6.19
2019-03-09T17:39:42.636Z,6.19
2019-03-09T17:42:16.064Z,6.19
2019-03-09T17:44:49.242Z,6.19
2019-03-09T17:47:31.804Z,6.15
2019-03-09T17:50:05.368Z,6.05
2019-03-09T17:52:47.905Z,5.91
2019-03-09T17:55:21.921Z,5.67
2019-03-09T17:58:04.949Z,5.52
2019-03-09T18:00:47.663Z,5.43
2019-03-09T18:03:30.188Z,5.24
2019-03-09T18:06:03.665Z,5.09
2019-03-09T18:08:36.757Z,4.97
2019-03-09T18:11:12.305Z,4.90
2019-03-09T18:13:45.796Z,4.86
2019-03-09T18:16:19.885Z,4.73
2019-03-09T18:18:53.356Z,4.68
2019-03-09T18:21:27.237Z,4.62
2019-03-09T18:24:09.645Z,4.64
2019-03-09T18:26:43.109Z,4.56
2019-03-09T18:29:16.617Z,4.51
2019-03-09T18:31:49.887Z,4.57
2019-03-09T18:34:25.083Z,4.57
2019-03-09T18:36:58.857Z,4.59
2019-03-09T18:39:32.412Z,4.57
2019-03-09T18:42:05.950Z,4.58
2019-03-09T18:44:39.534Z,4.54
2019-03-09T18:47:13.120Z,4.57
2019-03-09T18:49:46.627Z,4.58
2019-03-09T18:52:20.041Z,4.57
2019-03-09T18:54:53.206Z,4.63
2019-03-09T18:57:26.607Z,4.64
2019-03-09T18:59:59.734Z,4.63
2019-03-09T19:02:33.191Z,4.66
2019-03-09T19:05:06.554Z,4.68
2019-03-09T19:07:40.802Z,4.71
2019-03-09T19:10:14.773Z,4.74
2019-03-09T19:12:48.924Z,4.75
2019-03-09T19:15:31.189Z,4.80
2019-03-09T19:18:04.299Z,4.74
2019-03-09T19:20:36.454Z,4.76
2019-03-09T19:23:10.335Z,4.75
2019-03-09T19:25:43.889Z,4.71
2019-03-09T19:28:17.378Z,4.65
2019-03-09T19:30:51.125Z,4.63
2019-03-09T19:33:24.849Z,4.61
2019-03-09T19:35:58.640Z,4.58
2019-03-09T19:38:41.219Z,4.60
2019-03-09T19:41:14.476Z,4.52
2019-03-09T19:43:47.843Z,4.53
2019-03-09T19:46:21.339Z,4.54
2019-03-09T19:48:54.423Z,4.61
2019-03-09T19:51:37.066Z,4.75
2019-03-09T19:54:11.200Z,4.71
2019-03-09T19:56:56.189Z,4.80
2019-03-09T19:59:39.754Z,4.81
2019-03-09T20:02:14.737Z,4.83
2019-03-09T20:04:47.831Z,4.89
2019-03-09T20:07:30.398Z,4.95
2019-03-09T20:10:03.544Z,4.94
2019-03-09T20:12:36.837Z,5.01
2019-03-09T20:15:20.661Z,5.09
2019-03-09T20:17:54.111Z,5.08
2019-03-09T20:20:27.489Z,5.14
2019-03-09T20:23:01.895Z,5.18
2019-03-09T20:25:44.539Z,5.23
2019-03-09T20:28:28.103Z,5.23
2019-03-09T20:31:02.977Z,5.22
2019-03-09T20:33:36.249Z,5.22
2019-03-09T20:36:18.470Z,5.26
2019-03-09T20:38:53.086Z,5.19
2019-03-09T20:41:26.615Z,5.17
2019-03-09T20:44:08.573Z,5.22
2019-03-09T20:46:46.270Z,5.21
2019-03-09T20:49:19.874Z,5.26
2019-03-09T20:51:52.999Z,5.26
2019-03-09T20:54:35.366Z,5.32
2019-03-09T20:57:09.159Z,5.27
2019-03-09T20:59:42.333Z,5.22
2019-03-09T21:02:15.802Z,5.22
2019-03-09T21:04:49.691Z,5.20
2019-03-09T21:07:23.847Z,5.23
2019-03-09T21:10:10.340Z,5.27
2019-03-09T21:13:01.161Z,5.23
2019-03-09T21:15:34.627Z,5.15
2019-03-09T21:18:09.227Z,5.07
2019-03-09T21:20:52.561Z,5.13
2019-03-09T21:23:26.560Z,5.01
2019-03-09T21:26:01.186Z,4.99
2019-03-09T21:28:43.507Z,4.97
2019-03-09T21:31:16.901Z,4.94
2019-03-09T21:33:50.083Z,4.91
2019-03-09T21:36:25.115Z,4.91
2019-03-09T21:38:59.553Z,4.89
2019-03-09T21:41:33.086Z,4.93
2019-03-09T21:44:06.202Z,4.95
2019-03-09T21:46:40.028Z,4.96
2019-03-09T21:49:15.901Z,5.03
2019-03-09T21:51:58.218Z,5.05
2019-03-09T21:54:31.359Z,5.06
2019-03-09T21:57:04.501Z,5.06
2019-03-09T21:59:47.485Z,5.12
2019-03-09T22:02:35.701Z,5.06
2019-03-09T22:05:10.858Z,5.00
2019-03-09T22:07:44.013Z,4.99
2019-03-09T22:10:23.466Z,5.00
2019-03-09T22:13:06.357Z,5.01
2019-03-09T22:15:49.001Z,5.01
2019-03-09T22:18:31.307Z,4.95
2019-03-09T22:21:05.065Z,4.89
2019-03-09T22:23:44.085Z,4.87
2019-03-09T22:26:14.119Z,4.81
2019-03-09T22:28:47.573Z,4.77
2019-03-09T22:31:20.774Z,4.80
2019-03-09T22:33:54.239Z,4.84
2019-03-09T22:36:28.109Z,4.88
2019-03-09T22:39:01.246Z,4.90
2019-03-09T22:41:36.716Z,4.87
2019-03-09T22:44:09.817Z,4.90
2019-03-09T22:46:44.632Z,4.87
2019-03-09T22:49:27.117Z,4.90
2019-03-09T22:52:00.728Z,4.86
2019-03-09T22:54:34.819Z,4.88
2019-03-09T22:57:17.169Z,4.97
2019-03-09T22:59:51.234Z,4.95
2019-03-09T23:02:34.463Z,5.01
2019-03-09T23:05:23.011Z,5.07
2019-03-09T23:07:56.114Z,5.06
2019-03-09T23:10:40.012Z,5.09
2019-03-09T23:13:13.261Z,5.07
2019-03-09T23:15:55.849Z,5.17
2019-03-09T23:18:28.952Z,5.12
2019-03-09T23:21:02.523Z,5.13
2019-03-09T23:23:36.077Z,5.17
2019-03-09T23:26:09.192Z,5.19
2019-03-09T23:28:51.674Z,5.27
2019-03-09T23:31:24.810Z,5.26
2019-03-09T23:33:58.278Z,5.30
2019-03-09T23:36:31.946Z,5.33
2019-03-09T23:39:07.900Z,5.35
2019-03-09T23:41:50.161Z,5.40
2019-03-09T23:44:24.114Z,5.36
2019-03-09T23:46:57.554Z,5.36
2019-03-09T23:49:30.879Z,5.39
2019-03-09T23:52:04.371Z,5.44
2019-03-09T23:54:38.287Z,5.44
2019-03-09T23:57:12.191Z,5.45
2019-03-09T23:59:45.425Z,5.44
